createdAt,value
2019-05-12T00:02:03.342Z,9.05
2019-05-12T00:04:34.661Z,7.75
2019-05-12T00:07:05.832Z,8.48
2019-05-12T00:09:38.807Z,8.05
2019-05-12T00:12:09.916Z,8.98
2019-05-12T00:14:41.258Z,7.30
2019-05-12T00:17:12.592Z,9.90
2019-05-12T00:19:43.547Z,9.70
2019-05-12T00:22:18.066Z,9.13
2019-05-12T00:24:49.626Z,9.38
2019-05-12T00:27:23.502Z,7.55
2019-05-12T00:29:57.799Z,10.15
2019-05-12T00:32:29.640Z,10.20
2019-05-12T00:35:01.202Z,8.23
2019-05-12T00:37:32.328Z,8.33
2019-05-12T00:40:03.983Z,9.95
2019-05-12T00:42:35.096Z,7.30
2019-05-12T00:45:08.378Z,10.55
2019-05-12T00:47:40.699Z,8.70
2019-05-12T00:50:11.974Z,12.47
2019-05-12T00:52:43.286Z,11.33
2019-05-12T00:55:14.735Z,9.65
2019-05-12T00:57:45.837Z,11.65
2019-05-12T01:00:17.890Z,7.80
2019-05-12T01:02:49.009Z,10.93
2019-05-12T01:05:20.133Z,9.30
2019-05-12T01:07:51.329Z,6.08
2019-05-12T01:10:23.423Z,6.65
2019-05-12T01:12:54.738Z,7.08
2019-05-12T01:15:28.607Z,9.58
2019-05-12T01:18:03.218Z,13.40
2019-05-12T01:20:35.519Z,7.12
2019-05-12T01:23:08.927Z,7.55
2019-05-12T01:25:41.298Z,7.95
2019-05-12T01:28:13.698Z,9.80
2019-05-12T01:30:47.925Z,8.50
2019-05-12T01:33:20.363Z,9.13
2019-05-12T01:35:51.822Z,9.55
2019-05-12T01:38:23.340Z,14.43
2019-05-12T01:40:55.284Z,5.92
2019-05-12T01:43:27.758Z,8.75
2019-05-12T01:46:00.054Z,12.50
2019-05-12T01:48:32.179Z,9.53
2019-05-12T01:51:03.832Z,7.92
2019-05-12T01:53:37.628Z,7.62
2019-05-12T01:56:08.099Z,8.63
2019-05-12T01:58:39.277Z,5.58
2019-05-12T02:01:12.182Z,6.80
2019-05-12T02:03:43.110Z,5.62
2019-05-12T02:06:14.667Z,9.03
2019-05-12T02:08:47.854Z,6.40
2019-05-12T02:11:20.792Z,5.47
2019-05-12T02:13:52.506Z,7.92
2019-05-12T02:16:23.998Z,7.60
2019-05-12T02:18:55.136Z,5.35
2019-05-12T02:21:28.056Z,9.53
2019-05-12T02:23:59.344Z,10.20
2019-05-12T02:26:30.354Z,6.97
2019-05-12T02:29:01.987Z,9.53
2019-05-12T02:31:33.462Z,7.75
2019-05-12T02:34:05.706Z,9.57
2019-05-12T02:36:36.657Z,8.83
2019-05-12T02:39:08.784Z,6.58
2019-05-12T02:41:40.257Z,9.60
2019-05-12T02:44:14.603Z,7.70
2019-05-12T02:46:44.747Z,3.97
2019-05-12T02:49:15.990Z,6.50
2019-05-12T02:51:48.582Z,5.70
2019-05-12T02:54:24.987Z,6.13
2019-05-12T02:56:55.500Z,4.97
2019-05-12T02:59:29.749Z,5.83
2019-05-12T03:02:05.184Z,6.97
2019-05-12T03:04:36.442Z,5.87
2019-05-12T03:07:07.691Z,7.33
2019-05-12T03:09:39.935Z,10.10
2019-05-12T03:12:14.276Z,8.38
2019-05-12T03:14:44.926Z,11.00
2019-05-12T03:17:16.060Z,5.47
2019-05-12T03:19:47.554Z,7.17
2019-05-12T03:22:20.159Z,6.50
2019-05-12T03:25:07.749Z,15.63
2019-05-12T03:27:25.626Z,4.27
2019-05-12T03:29:57.054Z,6.03
2019-05-12T03:32:28.870Z,5.97
2019-05-12T03:35:00.319Z,5.57
2019-05-12T03:37:31.596Z,11.67
2019-05-12T03:40:05.418Z,7.67
2019-05-12T03:42:36.058Z,4.97
2019-05-12T03:45:07.539Z,6.43
2019-05-12T03:47:38.867Z,6.37
2019-05-12T03:50:10.580Z,9.83
2019-05-12T03:52:44.950Z,11.27
2019-05-12T03:55:30.203Z,6.90
2019-05-12T03:57:49.069Z,5.67
2019-05-12T04:00:24.492Z,6.47
2019-05-12T04:02:55.524Z,9.50
2019-05-12T04:05:27.208Z,7.50
2019-05-12T04:07:58.819Z,5.13
2019-05-12T04:10:30.743Z,7.87
2019-05-12T04:13:04.492Z,4.63
2019-05-12T04:15:35.894Z,3.77
2019-05-12T04:18:07.268Z,5.43
2019-05-12T04:20:38.779Z,6.60
2019-05-12T04:23:10.219Z,7.37
2019-05-12T04:25:54.825Z,7.37
2019-05-12T04:28:15.254Z,10.80
2019-05-12T04:30:46.676Z,7.07
2019-05-12T04:33:17.931Z,9.43
2019-05-12T04:35:49.656Z,6.30
2019-05-12T04:38:20.661Z,5.20
2019-05-12T04:40:55.073Z,7.67
2019-05-12T04:43:25.749Z,4.03
2019-05-12T04:45:57.599Z,3.50
2019-05-12T04:48:28.839Z,5.07
2019-05-12T04:51:01.385Z,4.87
2019-05-12T04:53:35.246Z,5.80
2019-05-12T04:56:15.636Z,5.77
2019-05-12T04:58:39.696Z,4.17
2019-05-12T05:01:10.981Z,8.63
2019-05-12T05:03:44.297Z,9.87
2019-05-12T05:06:15.390Z,6.60
2019-05-12T05:08:46.469Z,6.17
2019-05-12T05:11:17.698Z,5.93
2019-05-12T05:13:49.038Z,6.23
2019-05-12T05:16:19.796Z,5.83
2019-05-12T05:18:51.147Z,5.23
2019-05-12T05:21:24.032Z,7.93
2019-05-12T05:23:55.746Z,3.50
2019-05-12T05:26:28.295Z,6.00
2019-05-12T05:28:59.395Z,5.47
2019-05-12T05:31:30.592Z,6.97
2019-05-12T05:34:04.839Z,10.37
2019-05-12T05:36:36.589Z,6.17
2019-05-12T05:39:08.877Z,7.13
2019-05-12T05:41:46.611Z,5.83
2019-05-12T05:44:13.955Z,5.93
2019-05-12T05:46:49.998Z,11.30
2019-05-12T05:49:19.500Z,6.60
2019-05-12T05:51:55.115Z,8.87
2019-05-12T05:54:31.456Z,8.40
2019-05-12T05:56:59.696Z,41.00
2019-05-12T05:59:31.691Z,72.53
2019-05-12T06:02:04.711Z,424.23
2019-05-12T06:04:39.256Z,140.93
2019-05-12T06:07:08.345Z,256.70
2019-05-12T06:09:39.546Z,82.23
2019-05-12T06:12:10.994Z,138.33
2019-05-12T06:14:46.739Z,27.87
2019-05-12T06:17:15.500Z,26.23
2019-05-12T06:19:46.631Z,48.43
2019-05-12T06:22:18.571Z,67.67
2019-05-12T06:24:56.967Z,135.00
2019-05-12T06:27:24.339Z,74.77
2019-05-12T06:30:00.822Z,47.27
2019-05-12T06:32:29.150Z,33.30
2019-05-12T06:35:03.898Z,9.07
2019-05-12T06:37:33.930Z,12.60
2019-05-12T06:40:06.949Z,12.40
2019-05-12T06:42:38.238Z,8.40
2019-05-12T06:45:10.191Z,10.70
2019-05-12T06:47:45.300Z,7.73
2019-05-12T06:50:14.831Z,6.23
2019-05-12T06:52:49.009Z,4.73
2019-05-12T06:55:19.437Z,4.03
2019-05-12T06:57:50.887Z,5.37
2019-05-12T07:00:30.827Z,3.50
2019-05-12T07:02:55.513Z,4.17
2019-05-12T07:05:28.090Z,4.03
2019-05-12T07:08:00.909Z,4.83
2019-05-12T07:10:42.622Z,4.37
2019-05-12T07:13:06.125Z,3.97
2019-05-12T07:15:40.271Z,4.57
2019-05-12T07:18:14.091Z,5.93
2019-05-12T07:20:44.454Z,6.03
2019-05-12T07:23:19.583Z,3.93
2019-05-12T07:25:49.025Z,4.13
2019-05-12T07:28:20.591Z,5.03
2019-05-12T07:30:54.345Z,5.87
2019-05-12T07:33:25.991Z,4.33
2019-05-12T07:36:01.345Z,5.20
2019-05-12T07:38:34.385Z,6.50
2019-05-12T07:41:10.538Z,4.73
2019-05-12T07:43:40.626Z,5.07
2019-05-12T07:46:13.444Z,6.73
2019-05-12T07:48:48.955Z,5.77
2019-05-12T07:51:17.700Z,4.87
2019-05-12T07:53:57.231Z,5.87
2019-05-12T07:56:25.923Z,27.93
2019-05-12T07:58:57.242Z,77.53
2019-05-12T08:01:28.110Z,8.20
2019-05-12T08:04:01.424Z,19.70
2019-05-12T08:06:41.305Z,33.20
2019-05-12T08:09:07.997Z,61.90
2019-05-12T08:11:39.970Z,24.67
2019-05-12T08:14:13.856Z,21.77
2019-05-12T08:16:43.869Z,22.60
2019-05-12T08:19:24.020Z,8.83
2019-05-12T08:21:49.141Z,12.45
2019-05-12T08:24:20.501Z,8.50
2019-05-12T08:26:59.746Z,123.70
2019-05-12T08:29:24.580Z,9.47
2019-05-12T08:31:55.901Z,10.57
2019-05-12T08:34:27.121Z,11.70
2019-05-12T08:36:58.243Z,6.80
2019-05-12T08:39:29.303Z,16.10
2019-05-12T08:42:00.659Z,15.67
2019-05-12T08:44:38.471Z,10.00
2019-05-12T08:47:04.422Z,8.65
2019-05-12T08:49:49.733Z,6.17
2019-05-12T08:52:08.023Z,8.53
2019-05-12T08:54:39.573Z,8.67
2019-05-12T08:57:14.184Z,11.17
2019-05-12T08:59:44.265Z,25.87
2019-05-12T09:02:15.443Z,11.57
2019-05-12T09:04:51.253Z,16.27
2019-05-12T09:07:21.459Z,18.50
2019-05-12T09:09:53.412Z,11.80
2019-05-12T09:12:25.121Z,14.17
2019-05-12T09:14:56.071Z,12.03
2019-05-12T09:17:26.761Z,7.73
2019-05-12T09:20:03.641Z,4.90
2019-05-12T09:22:31.031Z,7.93
2019-05-12T09:25:04.281Z,11.93
2019-05-12T09:27:39.548Z,13.60
2019-05-12T09:30:24.203Z,6.47
2019-05-12T09:32:56.108Z,8.30
2019-05-12T09:35:33.570Z,7.17
2019-05-12T09:38:03.669Z,4.67
2019-05-12T09:40:43.978Z,9.13
2019-05-12T09:43:15.839Z,9.27
2019-05-12T09:45:51.468Z,6.43
2019-05-12T09:48:19.317Z,9.60
2019-05-12T09:50:51.545Z,9.70
2019-05-12T09:53:23.680Z,11.83
2019-05-12T09:55:54.605Z,9.53
2019-05-12T09:58:36.382Z,5.20
2019-05-12T10:01:09.641Z,6.33
2019-05-12T10:03:44.664Z,8.67
2019-05-12T10:06:18.051Z,6.87
2019-05-12T10:08:54.921Z,6.60
2019-05-12T10:11:29.411Z,8.08
2019-05-12T10:14:05.377Z,7.03
2019-05-12T10:16:33.436Z,5.37
2019-05-12T10:19:04.268Z,6.30
2019-05-12T10:21:36.054Z,8.13
2019-05-12T10:24:07.384Z,6.23
2019-05-12T10:26:41.259Z,9.30
2019-05-12T10:29:19.632Z,11.28
2019-05-12T10:31:44.590Z,11.90
2019-05-12T10:34:17.145Z,10.25
2019-05-12T10:36:49.342Z,10.73
2019-05-12T10:39:21.204Z,12.75
2019-05-12T10:41:53.954Z,13.38
2019-05-12T10:44:30.229Z,10.05
2019-05-12T10:46:58.685Z,18.40
2019-05-12T10:49:29.864Z,9.15
2019-05-12T10:52:00.821Z,7.73
2019-05-12T10:54:34.091Z,8.95
2019-05-12T10:57:05.085Z,8.50
2019-05-12T10:59:38.853Z,10.63
2019-05-12T11:02:09.258Z,16.77
2019-05-12T11:04:41.262Z,8.07
2019-05-12T11:07:13.592Z,16.47
2019-05-12T11:09:45.261Z,11.27
2019-05-12T11:12:19.109Z,8.60
2019-05-12T11:14:48.900Z,15.35
2019-05-12T11:17:19.582Z,16.03
2019-05-12T11:19:53.644Z,11.85
2019-05-12T11:22:23.111Z,10.47
2019-05-12T11:24:55.853Z,8.98
2019-05-12T11:27:26.901Z,11.53
2019-05-12T11:29:57.986Z,9.23
2019-05-12T11:32:34.029Z,8.08
2019-05-12T11:35:03.955Z,8.68
2019-05-12T11:37:34.026Z,9.23
2019-05-12T11:40:06.323Z,16.85
2019-05-12T11:42:37.256Z,13.10
2019-05-12T11:45:08.843Z,13.95
2019-05-12T11:52:41.153Z,25.20
2019-05-12T14:32:02.389Z,24.35
2019-05-12T14:34:33.961Z,7.03
2019-05-12T14:37:10.231Z,27.50
2019-05-12T14:39:46.210Z,9.43
2019-05-12T14:42:14.722Z,2.90
2019-05-12T14:47:27.963Z,6.20
2019-05-12T14:49:54.286Z,7.20
2019-05-12T14:52:27.400Z,5.63
2019-05-12T14:54:58.790Z,6.42
2019-05-12T14:57:37.414Z,3.00
2019-05-12T15:00:11.365Z,8.78
2019-05-12T15:02:43.829Z,5.50
2019-05-12T15:05:15.951Z,3.90
2019-05-12T15:07:53.758Z,4.53
2019-05-12T15:10:23.437Z,6.22
2019-05-12T15:12:54.902Z,10.80
2019-05-12T15:15:28.117Z,5.80
2019-05-12T15:18:03.124Z,9.88
2019-05-12T15:20:33.213Z,6.50
2019-05-12T15:23:06.169Z,7.08
2019-05-12T15:25:38.540Z,7.28
2019-05-12T15:28:10.397Z,5.90
2019-05-12T15:30:43.610Z,4.97
2019-05-12T15:33:15.732Z,4.30
2019-05-12T15:35:48.129Z,4.15
2019-05-12T15:38:20.426Z,4.00
2019-05-12T15:40:53.779Z,4.92
2019-05-12T15:43:25.679Z,4.85
2019-05-12T15:45:59.706Z,7.80
2019-05-12T15:48:34.214Z,6.87
2019-05-12T15:51:08.581Z,5.33
2019-05-12T15:53:39.189Z,5.15
2019-05-12T15:56:21.039Z,6.90
2019-05-12T15:58:47.114Z,6.40
2019-05-12T16:01:20.010Z,3.30
2019-05-12T16:03:54.322Z,4.92
2019-05-12T16:06:26.174Z,5.75
2019-05-12T16:08:59.142Z,2.92
2019-05-12T16:11:30.833Z,4.30
2019-05-12T16:14:04.093Z,5.12
2019-05-12T16:16:42.875Z,8.10
2019-05-12T16:19:15.475Z,3.92
2019-05-12T16:21:46.740Z,6.55
2019-05-12T16:24:18.626Z,5.80
2019-05-12T16:26:51.958Z,8.03
2019-05-12T16:29:27.299Z,5.58
2019-05-12T16:31:58.438Z,4.08
2019-05-12T16:34:29.651Z,3.30
2019-05-12T16:37:01.002Z,3.67
2019-05-12T16:39:37.175Z,3.50
2019-05-12T16:42:10.421Z,4.37
2019-05-12T16:44:38.579Z,5.97
2019-05-12T16:47:27.269Z,5.62
2019-05-12T16:50:15.656Z,6.92
2019-05-12T16:52:41.898Z,5.62
2019-05-12T16:55:13.170Z,9.38
2019-05-12T16:57:51.655Z,3.90
2019-05-12T17:00:17.384Z,8.73
2019-05-12T17:02:53.695Z,5.72
2019-05-12T17:05:24.012Z,5.28
2019-05-12T17:07:55.875Z,4.40
2019-05-12T17:10:28.765Z,3.25
2019-05-12T17:13:00.020Z,4.62
2019-05-12T17:15:31.242Z,8.25
2019-05-12T17:18:04.331Z,3.80
2019-05-12T17:20:45.862Z,6.05
2019-05-12T17:23:13.842Z,5.95
2019-05-12T17:25:45.395Z,9.30
2019-05-12T17:28:16.467Z,5.33
2019-05-12T17:30:47.572Z,7.72
2019-05-12T17:33:22.934Z,4.53
2019-05-12T17:35:53.319Z,6.67
2019-05-12T17:38:26.373Z,5.22
2019-05-12T17:41:00.655Z,7.70
2019-05-12T17:43:33.689Z,14.78
2019-05-12T17:46:04.555Z,27.02
2019-05-12T17:48:42.411Z,28.25
2019-05-12T17:51:10.464Z,31.27
2019-05-12T17:53:43.419Z,44.08
2019-05-12T17:56:16.051Z,46.15
2019-05-12T17:58:47.713Z,61.25
2019-05-12T18:01:23.162Z,61.20
2019-05-12T18:03:53.558Z,49.42
2019-05-12T18:06:26.916Z,68.37
2019-05-12T18:09:00.281Z,81.08
2019-05-12T18:11:33.963Z,43.45
2019-05-12T18:14:07.255Z,49.85
2019-05-12T18:16:38.586Z,30.57
2019-05-12T18:19:17.673Z,27.65
2019-05-12T18:21:45.138Z,23.25
2019-05-12T18:24:17.286Z,21.40
2019-05-12T18:26:56.638Z,27.37
2019-05-12T18:29:26.621Z,21.93
2019-05-12T18:31:57.998Z,13.05
2019-05-12T18:34:35.376Z,15.08
2019-05-12T18:37:07.047Z,11.97
2019-05-12T18:39:40.052Z,11.50
2019-05-12T18:42:13.944Z,24.98
2019-05-12T18:47:17.210Z,16.25
2019-05-12T18:49:50.240Z,18.20
2019-05-12T18:52:23.606Z,24.67
2019-05-12T18:54:57.268Z,17.80
2019-05-12T18:57:28.109Z,19.70
2019-05-12T19:00:04.051Z,21.17
2019-05-12T19:02:33.502Z,22.17
2019-05-12T19:05:06.408Z,40.45
2019-05-12T19:07:40.012Z,96.15
2019-05-12T19:10:09.912Z,63.95
2019-05-12T19:12:44.260Z,61.37
2019-05-12T19:15:37.910Z,172.43
2019-05-12T19:18:09.486Z,80.97
2019-05-12T19:20:44.034Z,116.73
2019-05-12T19:23:16.389Z,108.03
2019-05-12T19:25:47.668Z,110.08
2019-05-12T19:28:18.589Z,113.28
2019-05-12T19:30:50.445Z,101.42
2019-05-12T19:33:22.905Z,52.62
2019-05-12T19:35:59.801Z,49.25
2019-05-12T19:38:28.155Z,59.15
2019-05-12T19:41:04.468Z,35.55
2019-05-12T19:43:39.171Z,34.90
2019-05-12T19:46:08.258Z,35.68
2019-05-12T19:48:49.940Z,36.35
2019-05-12T19:51:25.559Z,36.60
2019-05-12T19:53:53.671Z,64.90
2019-05-12T19:56:24.600Z,62.62
2019-05-12T19:58:55.905Z,105.40
2019-05-12T20:01:32.982Z,55.15
2019-05-12T20:03:59.340Z,39.92
2019-05-12T20:06:30.648Z,39.88
2019-05-12T20:09:06.863Z,23.07
2019-05-12T20:11:33.999Z,23.70
2019-05-12T20:14:04.710Z,19.67
2019-05-12T20:16:35.461Z,18.82
2019-05-12T20:19:06.923Z,20.05
2019-05-12T20:21:48.379Z,20.35
2019-05-12T20:24:29.319Z,18.07
2019-05-12T20:27:04.096Z,15.08
2019-05-12T20:29:43.411Z,14.60
2019-05-12T20:32:29.757Z,15.68
2019-05-12T20:35:08.677Z,14.63
2019-05-12T20:37:52.974Z,17.12
2019-05-12T20:40:20.324Z,16.85
2019-05-12T20:43:07.377Z,18.63
2019-05-12T20:45:26.065Z,18.60
2019-05-12T20:47:57.851Z,18.98
2019-05-12T20:50:38.666Z,17.37
2019-05-12T20:53:03.842Z,15.00
2019-05-12T20:55:41.196Z,17.65
2019-05-12T20:58:08.567Z,16.75
2019-05-12T21:00:45.418Z,16.90
2019-05-12T21:03:27.243Z,15.72
2019-05-12T21:06:06.719Z,19.50
2019-05-12T21:08:37.880Z,15.20
2019-05-12T21:11:09.398Z,21.60
2019-05-12T21:13:43.794Z,19.80
2019-05-12T21:16:19.530Z,19.70
2019-05-12T21:18:55.845Z,16.62
2019-05-12T21:21:27.652Z,17.30
2019-05-12T21:23:59.127Z,20.30
2019-05-12T21:26:28.452Z,19.12
2019-05-12T21:29:01.479Z,17.77
2019-05-12T21:31:33.758Z,20.87
2019-05-12T21:34:06.840Z,19.02
2019-05-12T21:36:38.358Z,20.45
2019-05-12T21:39:10.562Z,18.10
2019-05-12T21:41:47.390Z,19.42
2019-05-12T21:44:17.577Z,16.80
2019-05-12T21:46:58.942Z,18.10
2019-05-12T21:49:25.134Z,14.90
2019-05-12T21:52:02.969Z,16.20
2019-05-12T21:54:36.182Z,14.83
2019-05-12T21:57:04.434Z,14.73
2019-05-12T21:59:39.513Z,12.10
2019-05-12T22:02:09.863Z,11.90
2019-05-12T22:04:42.847Z,12.70
2019-05-12T22:07:15.248Z,11.25
2019-05-12T22:09:47.235Z,14.83
2019-05-12T22:12:23.490Z,12.70
2019-05-12T22:14:54.278Z,10.88
2019-05-12T22:17:28.346Z,15.97
2019-05-12T22:20:00.052Z,14.23
2019-05-12T22:22:33.218Z,13.85
2019-05-12T22:25:09.724Z,13.15
2019-05-12T22:27:39.761Z,12.33
2019-05-12T22:30:13.347Z,18.73
2019-05-12T22:32:44.255Z,12.70
2019-05-12T22:35:21.775Z,11.38
2019-05-12T22:37:48.860Z,7.85
2019-05-12T22:40:23.458Z,9.08
2019-05-12T22:42:59.286Z,9.78
2019-05-12T22:45:27.412Z,7.20
2019-05-12T22:47:59.240Z,11.40
2019-05-12T22:50:33.334Z,11.55
2019-05-12T22:53:04.725Z,7.35
2019-05-12T22:55:36.527Z,10.45
2019-05-12T22:58:10.735Z,8.03
2019-05-12T23:00:41.145Z,7.10
2019-05-12T23:03:14.948Z,7.50
2019-05-12T23:05:50.864Z,9.75
2019-05-12T23:08:18.946Z,8.25
2019-05-12T23:10:53.276Z,13.50
2019-05-12T23:13:24.341Z,13.43
2019-05-12T23:15:56.008Z,4.43
2019-05-12T23:18:30.719Z,5.63
2019-05-12T23:21:03.934Z,12.60
2019-05-12T23:23:34.096Z,7.35
2019-05-12T23:26:05.377Z,8.13
2019-05-12T23:28:40.522Z,21.40
2019-05-12T23:31:09.856Z,21.55
2019-05-12T23:33:44.154Z,17.83
2019-05-12T23:36:17.809Z,17.62
2019-05-12T23:38:51.950Z,15.98
2019-05-12T23:41:20.239Z,8.03
2019-05-12T23:43:53.649Z,11.20
2019-05-12T23:46:24.965Z,7.95
2019-05-12T23:48:57.547Z,9.10
2019-05-12T23:51:29.095Z,9.10
2019-05-12T23:54:00.776Z,5.90
2019-05-12T23:56:33.703Z,7.05
2019-05-12T23:59:05.577Z,8.75
